Time;durP1;ratioP1;P1;durP2;ratioP2;P2;SDS_P1;SDS_P2;PMS_P1;PMS_P2;Temp;Humidity;BMP_temperature;BMP_pressure;BME280_temperature;BME280_humidity;BME280_pressure;Samples;Min_cycle;Max_cycle;Signal;HPM_P1;HPM_P2
2023/07/09 00:01:45;;;;;;;3.63;3.33;;;;;;;25.44;40.38;95466.72;6188475;28;109069;-61
2023/07/09 00:04:48;;;;;;;3.73;3.30;;;;;;;25.42;40.22;95461.69;6164527;28;109479;-61
2023/07/09 00:07:51;;;;;;;4.73;3.60;;;;;;;25.39;40.18;95454.28;6177257;28;109491;-61
2023/07/09 00:10:55;;;;;;;4.17;3.17;;;;;;;25.36;40.27;95454.88;6174654;28;109051;-62
2023/07/09 00:14:00;;;;;;;6.30;3.90;;;;;;;25.36;40.17;95454.88;6170621;28;111047;-61
2023/07/09 00:17:08;;;;;;;10.83;4.17;;;;;;;25.35;40.05;95454.09;6159983;28;109129;-61
2023/07/09 00:20:14;;;;;;;6.57;3.30;;;;;;;25.35;40.44;95442.59;6164673;28;109143;-61
2023/07/09 00:23:20;;;;;;;6.97;3.50;;;;;;;25.35;40.09;95442.59;6181403;28;109306;-61
2023/07/09 00:26:23;;;;;;;5.70;3.23;;;;;;;25.34;40.51;95441.00;6167383;28;108943;-61
2023/07/09 00:29:28;;;;;;;3.73;2.80;;;;;;;25.34;40.22;95441.00;6166102;28;108909;-62
2023/07/09 00:32:31;;;;;;;3.70;3.33;;;;;;;25.35;40.00;95439.91;6182254;28;111527;-60
2023/07/09 00:35:34;;;;;;;4.20;3.00;;;;;;;25.34;40.02;95438.31;6180671;28;110692;-60
2023/07/09 00:38:38;;;;;;;3.80;3.40;;;;;;;25.31;39.87;95441.63;6175062;28;109209;-60
2023/07/09 00:41:42;;;;;;;10.07;4.90;;;;;;;25.30;40.02;95438.16;6202810;28;109224;-60
2023/07/09 00:44:48;;;;;;;4.40;3.47;;;;;;;25.32;40.50;95432.47;6166725;28;109187;-60
2023/07/09 00:47:55;;;;;;;4.50;3.40;;;;;;;25.29;40.12;95443.84;6172867;28;110303;-63
2023/07/09 00:50:59;;;;;;;4.00;3.57;;;;;;;25.28;39.79;95442.25;6183571;28;108915;-61
2023/07/09 00:54:14;;;;;;;3.83;3.40;;;;;;;25.29;40.04;95443.84;6187754;28;108850;-61
2023/07/09 00:57:21;;;;;;;5.10;3.47;;;;;;;25.29;39.52;95430.44;6186295;28;109321;-60
2023/07/09 01:00:46;;;;;;;5.20;3.67;;;;;;;25.27;39.77;95432.66;6180589;28;110071;-60
2023/07/09 01:03:53;;;;;;;3.83;2.90;;;;;;;25.22;39.86;95438.97;6176750;28;109258;-60
2023/07/09 01:06:57;;;;;;;3.77;3.50;;;;;;;25.27;39.72;95427.28;6160878;28;110370;-61
2023/07/09 01:10:01;;;;;;;3.93;3.60;;;;;;;25.25;39.85;95440.22;6198753;28;109049;-60
2023/07/09 01:13:04;;;;;;;5.27;3.10;;;;;;;25.25;39.88;95441.00;6184458;28;109956;-59
2023/07/09 01:16:08;;;;;;;3.70;3.37;;;;;;;25.27;39.74;95440.69;6185482;28;108961;-60
2023/07/09 01:19:13;;;;;;;5.63;3.40;;;;;;;25.23;39.71;95442.44;6173104;28;109192;-60
2023/07/09 01:22:19;;;;;;;3.70;3.37;;;;;;;25.20;39.87;95440.38;6159719;28;109607;-61
2023/07/09 01:25:23;;;;;;;5.93;4.40;;;;;;;25.16;39.92;95434.84;6176231;28;109103;-61
2023/07/09 01:28:26;;;;;;;4.67;3.97;;;;;;;25.18;39.87;95440.69;6174833;28;109609;-62
2023/07/09 01:31:30;;;;;;;4.00;3.60;;;;;;;25.16;39.99;95436.75;6182365;28;109459;-61
2023/07/09 01:34:33;;;;;;;5.03;3.97;;;;;;;25.14;39.97;95430.91;6170691;28;109209;-60
2023/07/09 01:37:38;;;;;;;4.40;3.97;;;;;;;25.14;40.07;95431.72;6177894;28;108889;-60
2023/07/09 01:40:41;;;;;;;5.57;3.93;;;;;;;25.11;40.40;95434.22;6183182;28;109066;-61
2023/07/09 01:43:45;;;;;;;5.03;3.70;;;;;;;25.12;40.35;95435.81;6164518;28;109162;-60
2023/07/09 01:46:48;;;;;;;3.97;3.40;;;;;;;25.14;40.44;95444.31;6172113;28;109114;-60
2023/07/09 01:49:56;;;;;;;3.63;3.33;;;;;;;25.13;40.59;95450.78;6176249;28;109179;-62
2023/07/09 01:53:02;;;;;;;4.17;3.77;;;;;;;25.12;40.69;95454.56;6180914;28;109105;-61
2023/07/09 01:56:07;;;;;;;4.70;3.83;;;;;;;25.09;40.54;95447.94;6202904;28;110565;-63
2023/07/09 01:59:11;;;;;;;4.20;3.70;;;;;;;25.04;40.56;95448.91;6186522;28;109640;-61
2023/07/09 02:02:18;;;;;;;4.23;3.83;;;;;;;25.08;40.85;95459.75;6197305;28;109089;-60
2023/07/09 02:05:22;;;;;;;5.17;3.90;;;;;;;25.05;40.81;95455.81;6163425;28;109090;-66
2023/07/09 02:08:26;;;;;;;5.47;4.00;;;;;;;25.05;41.30;95455.81;6157538;28;109246;-61
2023/07/09 02:11:29;;;;;;;4.30;3.90;;;;;;;25.04;41.15;95456.16;6163088;28;109119;-61
2023/07/09 02:14:33;;;;;;;4.10;3.70;;;;;;;25.03;41.24;95460.72;6160468;28;110817;-62
2023/07/09 02:17:36;;;;;;;5.27;4.23;;;;;;;25.02;41.27;95461.00;6168301;28;111899;-61
2023/07/09 02:20:39;;;;;;;5.40;4.63;;;;;;;25.00;41.34;95455.97;6169511;28;109479;-60
2023/07/09 02:23:44;;;;;;;3.90;3.60;;;;;;;24.95;41.55;95460.69;6169930;28;109248;-60
2023/07/09 02:26:47;;;;;;;4.23;3.90;;;;;;;24.93;41.28;95463.69;6175022;28;109082;-60
2023/07/09 02:29:50;;;;;;;4.70;4.17;;;;;;;24.90;41.82;95468.88;6156185;28;109782;-67
2023/07/09 02:32:54;;;;;;;5.13;4.37;;;;;;;24.88;41.98;95471.88;6164043;28;109082;-60
2023/07/09 02:35:57;;;;;;;6.93;4.60;;;;;;;24.82;41.81;95473.09;6180820;28;109036;-60
2023/07/09 02:39:01;;;;;;;6.47;4.73;;;;;;;24.81;42.01;95476.09;6159926;28;109221;-60
2023/07/09 02:42:05;;;;;;;4.57;4.13;;;;;;;24.86;41.90;95478.63;6152655;28;109423;-60
2023/07/09 02:45:10;;;;;;;4.67;4.27;;;;;;;24.84;41.86;95470.13;6163666;28;109190;-60
2023/07/09 02:48:13;;;;;;;5.00;3.83;;;;;;;24.77;42.02;95486.66;6175411;28;109049;-61
2023/07/09 02:51:16;;;;;;;6.33;5.83;;;;;;;24.75;41.97;95484.28;6178989;28;109181;-60
2023/07/09 02:54:21;;;;;;;9.20;8.33;;;;;;;24.75;42.06;95488.84;6165429;28;109072;-62
2023/07/09 02:57:24;;;;;;;7.60;6.80;;;;;;;24.77;42.01;95487.44;6170150;28;108733;-60
2023/07/09 03:00:28;;;;;;;6.10;5.60;;;;;;;24.75;42.22;95492.31;6181591;28;109495;-60
2023/07/09 03:03:31;;;;;;;7.00;6.30;;;;;;;24.76;41.90;95498.47;6190414;28;109080;-60
2023/07/09 03:06:34;;;;;;;7.13;5.67;;;;;;;24.74;42.28;95503.34;6181693;28;109685;-62
2023/07/09 03:09:39;;;;;;;8.50;7.80;;;;;;;24.76;42.42;95503.81;6186972;28;109217;-60
2023/07/09 03:12:42;;;;;;;8.33;6.93;;;;;;;24.71;42.30;95503.97;6186690;28;109088;-61
2023/07/09 03:15:55;;;;;;;8.27;7.40;;;;;;;24.73;42.10;95499.88;6181830;28;109393;-61
2023/07/09 03:18:58;;;;;;;13.40;10.17;;;;;;;24.72;42.06;95500.19;6183476;28;109092;-60
2023/07/09 03:22:02;;;;;;;6.20;5.60;;;;;;;24.71;41.51;95506.63;6176651;28;109573;-61
2023/07/09 03:25:07;;;;;;;7.40;6.70;;;;;;;24.72;41.95;95508.22;6180202;28;109082;-60
2023/07/09 03:28:11;;;;;;;8.10;7.30;;;;;;;24.72;41.89;95511.69;6158413;28;109362;-60
2023/07/09 03:31:14;;;;;;;7.90;7.10;;;;;;;24.69;41.67;95503.47;6188622;28;110439;-61
2023/07/09 03:34:17;;;;;;;6.23;5.73;;;;;;;24.67;41.59;95501.06;6181289;28;109055;-61
2023/07/09 03:37:20;;;;;;;7.33;5.70;;;;;;;24.67;41.51;95502.94;6171880;28;110093;-62
2023/07/09 03:40:25;;;;;;;7.43;6.73;;;;;;;24.66;41.52;95502.16;6176299;28;109189;-64
2023/07/09 03:43:28;;;;;;;8.70;7.80;;;;;;;24.67;41.79;95509.09;6187520;28;110071;-61
2023/07/09 03:46:31;;;;;;;11.03;9.93;;;;;;;24.66;41.66;95507.53;6169081;28;109049;-61
2023/07/09 03:49:34;;;;;;;19.80;18.07;;;;;;;24.64;41.69;95504.38;6157326;28;109204;-61
2023/07/09 03:52:38;;;;;;;14.10;12.90;;;;;;;24.67;41.81;95508.31;6166396;28;109322;-61
2023/07/09 03:55:42;;;;;;;10.27;9.37;;;;;;;24.64;41.65;95511.59;6183840;28;109814;-62
2023/07/09 03:58:46;;;;;;;8.40;7.70;;;;;;;24.65;41.85;95510.50;6181137;28;109133;-60
2023/07/09 04:01:49;;;;;;;8.60;6.70;;;;;;;24.64;41.32;95519.63;6159575;28;110087;-60
2023/07/09 04:04:52;;;;;;;8.13;7.27;;;;;;;24.65;41.72;95515.84;6174119;28;109025;-62
2023/07/09 04:07:55;;;;;;;6.97;6.27;;;;;;;24.61;41.53;95514.91;6168777;28;109434;-62
2023/07/09 04:11:03;;;;;;;5.87;5.47;;;;;;;24.59;41.51;95522.47;6173782;28;109203;-63
2023/07/09 04:14:07;;;;;;;9.00;5.40;;;;;;;24.71;42.04;95514.66;6176797;28;110408;-66
2023/07/09 04:17:10;;;;;;;11.40;4.93;;;;;;;24.88;41.88;95528.09;6184633;28;109258;-66
2023/07/09 04:20:13;;;;;;;5.50;4.50;;;;;;;24.94;42.12;95523.38;6186740;28;109398;-66
2023/07/09 04:23:17;;;;;;;5.87;5.30;;;;;;;25.04;42.22;95539.94;6186914;28;110249;-66
2023/07/09 04:26:23;;;;;;;7.20;6.37;;;;;;;25.07;42.52;95533.97;6166188;28;109129;-66
2023/07/09 04:29:26;;;;;;;16.77;15.53;;;;;;;25.11;42.73;95539.47;6200970;28;108771;-65
2023/07/09 04:32:29;;;;;;;9.20;8.40;;;;;;;25.13;42.49;95547.97;6165796;28;108852;-66
2023/07/09 04:35:32;;;;;;;12.23;11.30;;;;;;;25.14;42.67;95540.72;6155206;28;111684;-66
2023/07/09 04:38:35;;;;;;;9.07;8.27;;;;;;;25.14;42.61;95546.88;6163501;28;109499;-66
2023/07/09 04:41:40;;;;;;;8.67;6.80;;;;;;;25.14;42.59;95551.44;6185154;28;109525;-65
2023/07/09 04:44:44;;;;;;;8.20;7.50;;;;;;;25.11;42.78;95552.06;6181537;28;109212;-64
2023/07/09 04:47:47;;;;;;;16.10;14.57;;;;;;;25.10;42.46;95545.94;6154433;28;109921;-64
2023/07/09 04:50:50;;;;;;;13.20;11.93;;;;;;;25.15;43.08;95547.66;6174903;28;109243;-64
2023/07/09 04:53:54;;;;;;;12.10;11.10;;;;;;;25.14;43.69;95544.19;6183343;28;110124;-64
2023/07/09 04:56:58;;;;;;;7.63;7.00;;;;;;;24.79;43.76;95549.47;6182839;28;109281;-64
2023/07/09 05:00:04;;;;;;;14.07;7.97;;;;;;;24.81;43.58;95541.13;6173545;28;109194;-64
2023/07/09 05:03:07;;;;;;;18.40;16.80;;;;;;;24.88;43.52;95546.06;6185338;28;109027;-64
2023/07/09 05:06:10;;;;;;;8.90;8.10;;;;;;;24.58;43.67;95547.66;6186135;28;111619;-64
2023/07/09 05:09:13;;;;;;;18.60;17.00;;;;;;;24.75;43.78;95553.09;6173457;28;109310;-64
2023/07/09 05:12:20;;;;;;;10.50;9.50;;;;;;;24.88;43.46;95554.88;6157204;28;109314;-63
2023/07/09 05:15:24;;;;;;;11.57;8.37;;;;;;;24.92;43.27;95553.13;6177135;28;109118;-62
2023/07/09 05:18:27;;;;;;;22.83;8.70;;;;;;;24.97;43.21;95555.66;6180914;28;109478;-64
2023/07/09 05:21:30;;;;;;;13.10;7.53;;;;;;;25.00;43.14;95555.03;6175507;28;109130;-63
2023/07/09 05:24:33;;;;;;;10.67;7.40;;;;;;;25.01;43.40;95553.16;6178426;28;109058;-63
2023/07/09 05:27:38;;;;;;;10.37;7.10;;;;;;;25.03;43.19;95558.97;6181004;28;109680;-63
2023/07/09 05:30:42;;;;;;;12.60;9.00;;;;;;;25.03;43.72;95557.13;6198183;28;109103;-65
2023/07/09 05:33:46;;;;;;;15.70;8.90;;;;;;;25.11;43.80;95558.22;6174715;28;110198;-64
2023/07/09 05:36:49;;;;;;;14.27;8.10;;;;;;;25.16;43.96;95557.28;6185626;28;110346;-64
2023/07/09 05:39:52;;;;;;;12.00;7.90;;;;;;;25.21;43.99;95555.25;6186043;28;109582;-64
2023/07/09 05:42:57;;;;;;;15.37;8.13;;;;;;;25.27;44.13;95547.84;6196016;28;109180;-66
2023/07/09 05:46:02;;;;;;;9.83;7.23;;;;;;;25.35;44.10;95550.56;6202767;28;109653;-64
2023/07/09 05:49:07;;;;;;;10.20;7.63;;;;;;;25.40;44.24;95552.31;6185705;28;110264;-64
2023/07/09 05:52:10;;;;;;;10.30;7.10;;;;;;;25.46;44.59;95556.41;6184031;28;108883;-63
2023/07/09 05:55:14;;;;;;;11.57;7.43;;;;;;;25.50;44.12;95551.19;6175115;28;109699;-63
2023/07/09 05:58:18;;;;;;;14.50;7.10;;;;;;;25.52;44.23;95543.63;6178818;28;109755;-63
2023/07/09 06:01:22;;;;;;;11.70;7.17;;;;;;;25.56;44.65;95542.69;6163640;28;109394;-64
2023/07/09 06:04:26;;;;;;;10.10;6.40;;;;;;;25.63;44.82;95543.00;6176961;28;108998;-63
2023/07/09 06:07:30;;;;;;;8.70;7.07;;;;;;;25.67;44.58;95540.47;6173871;28;110911;-63
2023/07/09 06:10:33;;;;;;;11.43;7.60;;;;;;;25.51;44.66;95544.72;6169351;28;109086;-61
2023/07/09 06:13:37;;;;;;;9.80;6.70;;;;;;;25.40;44.42;95538.91;6175550;28;110023;-62
2023/07/09 06:16:41;;;;;;;12.13;7.20;;;;;;;25.44;43.47;95537.16;6173443;28;108988;-61
2023/07/09 06:19:44;;;;;;;8.63;6.93;;;;;;;25.30;43.59;95541.84;6150287;28;109223;-62
2023/07/09 06:22:47;;;;;;;7.73;6.83;;;;;;;25.29;43.34;95535.72;6163201;28;109170;-62
2023/07/09 06:25:51;;;;;;;10.33;6.80;;;;;;;25.26;43.50;95540.91;6171252;28;109426;-61
2023/07/09 06:28:55;;;;;;;8.43;6.03;;;;;;;25.36;42.93;95535.25;6182225;28;111030;-61
2023/07/09 06:31:58;;;;;;;6.20;5.60;;;;;;;25.43;42.55;95534.81;6208005;28;109017;-61
2023/07/09 06:35:02;;;;;;;6.93;5.80;;;;;;;25.38;42.52;95528.50;6198047;28;109040;-61
2023/07/09 06:38:05;;;;;;;9.03;5.37;;;;;;;25.30;42.10;95528.47;6169884;28;109079;-60
2023/07/09 06:41:08;;;;;;;7.43;5.53;;;;;;;25.28;41.50;95534.13;6157802;28;110141;-61
2023/07/09 06:44:13;;;;;;;18.23;6.90;;;;;;;25.47;42.09;95533.84;6163020;28;109242;-61
2023/07/09 06:47:17;;;;;;;9.50;6.80;;;;;;;25.72;41.89;95534.19;6187592;28;109927;-61
2023/07/09 06:50:20;;;;;;;10.93;8.50;;;;;;;25.83;42.58;95516.66;6185418;28;109026;-61
2023/07/09 06:53:26;;;;;;;10.00;8.40;;;;;;;25.94;42.23;95528.63;6159367;28;109114;-67
2023/07/09 06:56:30;;;;;;;11.13;7.33;;;;;;;26.05;42.87;95531.78;6173449;28;109088;-63
2023/07/09 06:59:34;;;;;;;10.53;7.80;;;;;;;26.13;42.74;95525.59;6188916;28;109044;-63
2023/07/09 07:02:37;;;;;;;11.03;6.80;;;;;;;26.21;43.09;95527.47;6164901;28;109073;-66
2023/07/09 07:05:44;;;;;;;7.10;6.40;;;;;;;26.26;43.47;95536.16;6174494;28;110820;-66
2023/07/09 07:08:47;;;;;;;8.00;7.10;;;;;;;26.37;43.41;95525.06;6173054;28;109531;-66
2023/07/09 07:11:50;;;;;;;7.53;6.83;;;;;;;26.42;44.54;95532.94;6187938;28;109161;-66
2023/07/09 07:14:56;;;;;;;9.00;7.43;;;;;;;26.44;46.18;95531.50;6167910;28;109340;-65
2023/07/09 07:18:01;;;;;;;9.13;8.27;;;;;;;26.49;46.83;95530.53;6181070;28;109177;-66
2023/07/09 07:21:05;;;;;;;10.60;8.27;;;;;;;26.55;48.33;95529.28;6172714;28;109051;-66
2023/07/09 07:24:08;;;;;;;12.10;9.40;;;;;;;26.60;48.57;95529.09;6199790;28;109242;-66
2023/07/09 07:27:11;;;;;;;12.57;9.00;;;;;;;26.64;48.34;95534.63;6191624;28;110060;-67
2023/07/09 07:30:17;;;;;;;10.73;9.37;;;;;;;26.65;48.25;95526.22;6188199;28;109033;-66
2023/07/09 07:33:20;;;;;;;11.17;9.97;;;;;;;26.68;47.76;95517.53;6177408;28;109246;-66
2023/07/09 07:36:23;;;;;;;10.97;9.73;;;;;;;26.70;47.42;95512.63;6181297;28;109450;-66
2023/07/09 07:39:33;;;;;;;14.47;10.83;;;;;;;26.72;47.68;95521.16;6194752;28;110250;-66
2023/07/09 07:42:36;;;;;;;13.90;11.60;;;;;;;26.70;48.20;95511.84;6211713;28;108950;-66
2023/07/09 07:45:43;;;;;;;15.47;12.20;;;;;;;26.68;47.47;95514.06;6189612;28;109868;-72
2023/07/09 07:48:46;;;;;;;13.90;12.50;;;;;;;26.74;47.29;95516.25;6185241;28;110167;-67
2023/07/09 07:51:49;;;;;;;17.13;13.90;;;;;;;26.76;47.83;95514.03;6171364;28;109128;-66
2023/07/09 07:54:52;;;;;;;17.20;13.03;;;;;;;26.76;46.94;95505.97;6175242;28;110158;-67
2023/07/09 07:57:56;;;;;;;21.03;15.37;;;;;;;26.78;47.62;95521.75;6194420;28;110163;-67
2023/07/09 08:01:01;;;;;;;21.13;16.83;;;;;;;26.78;47.00;95519.06;6170569;28;110820;-66
2023/07/09 08:04:06;;;;;;;18.17;15.80;;;;;;;26.79;46.81;95515.28;6186149;28;109025;-67
2023/07/09 08:07:10;;;;;;;19.37;16.33;;;;;;;26.80;46.51;95511.47;6185902;28;109081;-66
2023/07/09 08:10:15;;;;;;;19.97;16.50;;;;;;;26.84;46.08;95501.66;6182788;28;109080;-66
2023/07/09 08:13:18;;;;;;;18.03;16.07;;;;;;;26.86;46.08;95505.59;6156656;28;109973;-70
2023/07/09 08:16:23;;;;;;;19.10;16.40;;;;;;;26.87;45.13;95495.63;6171026;28;109152;-70
2023/07/09 08:19:26;;;;;;;20.87;17.67;;;;;;;26.92;44.85;95494.66;6187149;28;109399;-71
2023/07/09 08:22:29;;;;;;;19.47;17.60;;;;;;;26.92;45.04;95486.63;6169812;28;109911;-69
2023/07/09 08:25:32;;;;;;;20.07;18.10;;;;;;;26.93;44.78;95496.25;6163293;28;109083;-75
2023/07/09 08:28:36;;;;;;;20.80;18.90;;;;;;;26.93;44.97;95491.66;6194226;28;110501;-70
2023/07/09 08:31:41;;;;;;;22.17;20.17;;;;;;;26.93;44.94;95494.34;6171073;28;109469;-70
2023/07/09 08:34:45;;;;;;;21.70;19.70;;;;;;;26.93;44.69;95488.97;6155961;28;109353;-70
2023/07/09 08:38:08;;;;;;;19.10;17.60;;;;;;;26.92;43.52;95492.78;6178253;28;108740;-70
2023/07/09 08:41:33;;;;;;;23.00;20.90;;;;;;;26.95;43.82;95494.81;6178380;28;109498;-71
2023/07/09 08:44:59;;;;;;;22.90;21.00;;;;;;;26.96;43.79;95492.91;6182859;28;109244;-70
2023/07/09 08:48:09;;;;;;;23.93;22.00;;;;;;;26.97;43.31;95497.94;6191630;28;110898;-70
2023/07/09 08:51:20;;;;;;;24.30;21.87;;;;;;;26.98;43.05;95491.47;6186357;28;109301;-70
2023/07/09 08:54:28;;;;;;;20.93;19.23;;;;;;;26.97;42.99;95489.09;6166580;28;109019;-71
2023/07/09 08:57:36;;;;;;;25.17;23.00;;;;;;;27.01;43.08;95492.69;6169668;28;109598;-77
2023/07/09 09:00:46;;;;;;;24.07;22.17;;;;;;;27.03;43.04;95495.84;6190960;28;109134;-69
2023/07/09 09:03:53;;;;;;;24.30;22.27;;;;;;;27.06;43.26;95492.53;6181090;28;109998;-71
2023/07/09 09:07:05;;;;;;;25.13;22.73;;;;;;;27.04;42.83;95492.81;6194091;28;109784;-71
2023/07/09 09:10:14;;;;;;;26.63;24.10;;;;;;;27.03;43.12;95487.78;6177326;28;109006;-72
2023/07/09 09:13:21;;;;;;;25.80;23.40;;;;;;;27.02;42.99;95496.97;6187677;28;109633;-74
2023/07/09 09:16:29;;;;;;;30.07;23.10;;;;;;;27.04;43.12;95489.34;6177642;28;109103;-71
2023/07/09 09:19:39;;;;;;;24.33;21.73;;;;;;;27.07;43.08;95488.72;6178392;28;109842;-69
2023/07/09 09:22:47;;;;;;;25.27;22.57;;;;;;;27.01;43.33;95479.25;6185340;28;109869;-71
2023/07/09 09:25:54;;;;;;;22.53;20.30;;;;;;;26.99;42.82;95481.50;6187607;28;112090;-71
2023/07/09 09:29:16;;;;;;;21.97;19.90;;;;;;;26.99;42.97;95490.34;6192877;28;109124;-71
2023/07/09 09:32:24;;;;;;;23.37;21.20;;;;;;;26.96;43.16;95476.78;6160134;28;109066;-69
2023/07/09 09:35:31;;;;;;;22.90;20.70;;;;;;;26.95;42.82;95485.94;6175600;28;109589;-71
2023/07/09 09:38:37;;;;;;;23.80;21.70;;;;;;;26.90;43.21;95478.88;6200917;28;109102;-70
2023/07/09 09:41:42;;;;;;;23.27;21.17;;;;;;;26.89;43.40;95477.31;6199454;28;110504;-70
2023/07/09 09:44:47;;;;;;;23.80;21.40;;;;;;;26.88;43.05;95470.34;6168824;28;109097;-70
2023/07/09 09:47:50;;;;;;;23.90;21.63;;;;;;;26.87;43.22;95474.91;6178425;28;109098;-71
2023/07/09 09:50:55;;;;;;;21.90;19.70;;;;;;;26.84;43.19;95467.53;6175155;28;109176;-71
2023/07/09 09:54:02;;;;;;;21.40;19.53;;;;;;;26.83;43.00;95473.22;6157012;28;109116;-69
2023/07/09 09:57:16;;;;;;;20.77;18.87;;;;;;;26.85;43.40;95471.00;6189885;28;109079;-68
2023/07/09 10:00:22;;;;;;;19.67;17.87;;;;;;;26.84;42.88;95464.06;6179344;28;109502;-71
2023/07/09 10:03:34;;;;;;;19.23;17.40;;;;;;;26.83;43.45;95457.09;6172473;28;109399;-70
2023/07/09 10:06:43;;;;;;;18.60;17.00;;;;;;;26.82;42.95;95461.69;6176273;28;109182;-71
2023/07/09 10:09:49;;;;;;;18.00;16.33;;;;;;;26.78;43.04;95458.09;6175742;28;109303;-72
2023/07/09 10:12:55;;;;;;;18.30;16.67;;;;;;;26.79;43.02;95461.56;6183804;28;109383;-70
2023/07/09 10:16:06;;;;;;;18.30;16.90;;;;;;;26.78;43.58;95463.47;6174272;28;109348;-72
2023/07/09 10:19:19;;;;;;;18.00;16.50;;;;;;;26.76;43.14;95454.94;6201045;28;109076;-70
2023/07/09 10:22:40;;;;;;;16.77;15.37;;;;;;;26.75;43.28;95458.75;6186266;28;109072;-71
2023/07/09 10:25:51;;;;;;;17.77;16.23;;;;;;;26.72;43.67;95455.94;6179445;28;109055;-71
2023/07/09 10:29:27;;;;;;;16.90;15.50;;;;;;;26.71;43.12;95457.81;6182074;28;109163;-70
2023/07/09 10:32:46;;;;;;;15.27;14.07;;;;;;;26.69;43.08;95449.28;6215992;28;109150;-66
2023/07/09 10:35:59;;;;;;;16.20;14.90;;;;;;;26.69;43.15;95451.19;6165587;28;109108;-65
2023/07/09 10:39:10;;;;;;;14.57;13.40;;;;;;;26.71;43.56;95446.28;6170316;28;113260;-65
2023/07/09 10:42:31;;;;;;;14.83;13.53;;;;;;;26.69;43.46;95446.59;6188920;28;109042;-66
2023/07/09 10:45:41;;;;;;;14.10;13.00;;;;;;;26.68;43.27;95450.41;6198998;28;109959;-66
2023/07/09 10:48:47;;;;;;;14.03;12.93;;;;;;;26.65;43.24;95445.69;6179617;28;109392;-66
2023/07/09 10:51:56;;;;;;;13.93;12.83;;;;;;;26.69;43.29;95446.59;6198795;28;109426;-67
2023/07/09 10:55:05;;;;;;;13.60;12.20;;;;;;;26.73;43.23;95426.06;6198361;28;109110;-70
2023/07/09 10:58:31;;;;;;;12.57;11.53;;;;;;;26.78;43.10;95444.66;6193864;28;109037;-71
2023/07/09 11:01:39;;;;;;;12.87;11.77;;;;;;;26.80;43.25;95437.06;6200237;28;109070;-73
2023/07/09 11:04:48;;;;;;;11.53;10.60;;;;;;;26.82;43.89;95437.53;6189754;28;109265;-64
2023/07/09 11:08:01;;;;;;;13.20;11.80;;;;;;;26.80;43.78;95434.38;6177521;28;109103;-63
2023/07/09 11:11:12;;;;;;;11.50;10.50;;;;;;;26.80;43.70;95434.38;6187928;28;109101;-64
2023/07/09 11:14:27;;;;;;;11.20;10.30;;;;;;;26.78;44.17;95430.44;6168659;28;109073;-64
2023/07/09 11:17:30;;;;;;;11.17;10.27;;;;;;;26.76;43.73;95436.16;6182638;28;108876;-62
2023/07/09 11:20:37;;;;;;;11.93;10.87;;;;;;;26.77;44.13;95434.25;6164497;28;109081;-64
2023/07/09 11:23:46;;;;;;;10.67;9.80;;;;;;;26.76;44.50;95425.41;6166168;28;109947;-62
2023/07/09 11:26:51;;;;;;;10.47;9.37;;;;;;;26.75;44.59;95423.84;6188558;28;109063;-62
2023/07/09 11:29:59;;;;;;;9.67;8.83;;;;;;;26.75;44.47;95431.91;6196064;28;109089;-62
2023/07/09 11:33:04;;;;;;;9.43;8.53;;;;;;;26.74;44.31;95437.59;6188976;28;109185;-63
2023/07/09 11:36:27;;;;;;;9.17;8.40;;;;;;;26.73;44.32;95426.06;6202065;28;109062;-62
2023/07/09 11:39:34;;;;;;;9.07;8.27;;;;;;;26.74;44.02;95422.28;6203298;28;109072;-62
2023/07/09 11:42:50;;;;;;;9.27;8.47;;;;;;;26.72;43.89;95415.66;6187972;28;109100;-61
2023/07/09 11:45:54;;;;;;;8.77;8.07;;;;;;;26.74;43.67;95421.50;6193438;28;110882;-62
2023/07/09 11:49:01;;;;;;;8.50;7.70;;;;;;;26.74;44.02;95416.91;6176227;28;110073;-61
2023/07/09 11:52:05;;;;;;;8.20;7.60;;;;;;;26.73;44.41;95417.22;6162991;28;109863;-61
2023/07/09 11:55:28;;;;;;;7.87;7.27;;;;;;;26.74;43.84;95410.75;6161930;28;109044;-61
2023/07/09 11:58:33;;;;;;;7.30;6.60;;;;;;;26.75;43.93;95412.31;6147846;28;109444;-61
2023/07/09 12:01:43;;;;;;;7.00;6.43;;;;;;;26.75;43.53;95413.09;6209117;28;109092;-63
2023/07/09 12:04:50;;;;;;;7.37;6.80;;;;;;;26.73;44.32;95404.59;6173777;28;109164;-62
2023/07/09 12:07:53;;;;;;;7.43;6.70;;;;;;;26.75;43.65;95407.72;6162173;28;109614;-63
2023/07/09 12:10:56;;;;;;;7.63;6.93;;;;;;;26.78;43.77;95403.59;6152082;28;109551;-61
2023/07/09 12:14:05;;;;;;;6.90;6.30;;;;;;;26.77;43.73;95394.75;6162090;28;109302;-61
2023/07/09 12:17:10;;;;;;;6.40;5.80;;;;;;;26.80;44.46;95414.78;6171047;28;109339;-63
2023/07/09 12:20:14;;;;;;;7.07;6.47;;;;;;;26.80;43.72;95402.16;6177709;28;109962;-61
2023/07/09 12:23:26;;;;;;;7.73;6.13;;;;;;;26.80;44.17;95402.16;6183163;28;109259;-62
2023/07/09 12:26:32;;;;;;;6.80;6.10;;;;;;;26.73;44.29;95396.53;6172627;28;110313;-65
2023/07/09 12:29:37;;;;;;;6.00;5.33;;;;;;;26.74;43.94;95400.78;6188221;28;109743;-68
2023/07/09 12:32:45;;;;;;;6.03;5.53;;;;;;;26.74;43.41;95394.63;6176666;28;109121;-66
2023/07/09 12:35:54;;;;;;;6.63;6.07;;;;;;;26.74;43.55;95384.69;6181505;28;109465;-65
2023/07/09 12:39:02;;;;;;;5.83;5.43;;;;;;;26.74;43.42;95389.25;6191952;28;109365;-65
2023/07/09 12:42:06;;;;;;;6.40;5.73;;;;;;;26.75;43.15;95380.88;6181749;28;109421;-66
2023/07/09 12:45:16;;;;;;;5.80;5.33;;;;;;;26.76;43.19;95385.13;6186645;28;110454;-67
2023/07/09 12:48:23;;;;;;;6.20;5.30;;;;;;;26.75;42.67;95372.81;6179304;28;110097;-67
2023/07/09 12:51:30;;;;;;;6.27;5.67;;;;;;;26.73;42.71;95372.38;6203158;28;110026;-66
2023/07/09 12:54:33;;;;;;;6.40;5.80;;;;;;;26.72;42.98;95368.13;6166902;28;109058;-66
2023/07/09 12:57:38;;;;;;;5.83;5.33;;;;;;;26.70;42.85;95366.84;6162040;28;109034;-68
2023/07/09 13:00:51;;;;;;;7.00;5.10;;;;;;;26.70;42.50;95381.06;6180302;28;110055;-66
2023/07/09 13:03:55;;;;;;;5.50;5.10;;;;;;;26.69;42.53;95370.66;6194583;28;109137;-66
2023/07/09 13:06:59;;;;;;;6.13;5.27;;;;;;;26.73;42.77;95375.06;6157108;28;109068;-68
2023/07/09 13:10:16;;;;;;;7.40;5.97;;;;;;;26.75;43.34;95369.34;6178405;28;110148;-67
2023/07/09 13:13:21;;;;;;;7.00;6.40;;;;;;;26.73;42.71;95369.69;6192774;28;110009;-67
2023/07/09 13:16:26;;;;;;;7.43;6.70;;;;;;;26.77;43.31;95375.19;6188832;28;110252;-65
2023/07/09 13:19:29;;;;;;;7.80;7.20;;;;;;;26.73;43.40;95369.69;6188086;28;109637;-67
2023/07/09 13:22:32;;;;;;;8.73;7.77;;;;;;;26.76;43.34;95373.59;6203384;28;109182;-66
2023/07/09 13:25:36;;;;;;;9.50;8.60;;;;;;;26.76;42.79;95369.03;6197611;28;109183;-67
2023/07/09 13:28:51;;;;;;;9.50;8.70;;;;;;;26.76;42.73;95374.41;6184720;28;109184;-66
2023/07/09 13:31:57;;;;;;;10.83;9.17;;;;;;;26.74;42.90;95376.63;6186805;28;109166;-66
2023/07/09 13:35:00;;;;;;;10.23;9.23;;;;;;;26.72;42.88;95372.69;6175453;28;109221;-67
2023/07/09 13:38:05;;;;;;;10.17;9.20;;;;;;;26.69;42.95;95376.00;6177254;28;109176;-66
2023/07/09 13:41:14;;;;;;;9.87;8.90;;;;;;;26.67;42.96;95372.88;6179250;28;109087;-66
2023/07/09 13:44:20;;;;;;;10.57;9.57;;;;;;;26.65;43.10;95375.88;6176975;28;109212;-67
2023/07/09 13:47:25;;;;;;;11.87;9.40;;;;;;;26.65;43.53;95375.88;6171117;28;108995;-66
2023/07/09 13:50:28;;;;;;;10.73;9.20;;;;;;;26.65;43.92;95380.47;6175420;28;108986;-66
2023/07/09 13:53:33;;;;;;;10.60;9.70;;;;;;;26.66;44.20;95372.09;6179842;28;111990;-66
2023/07/09 13:56:36;;;;;;;11.00;9.10;;;;;;;26.66;43.47;95379.34;6185234;28;110188;-66
2023/07/09 13:59:42;;;;;;;9.77;8.30;;;;;;;26.69;43.19;95381.38;6185542;28;110349;-65
2023/07/09 14:02:47;;;;;;;9.40;8.50;;;;;;;26.69;44.03;95384.84;6162088;28;109784;-64
2023/07/09 14:05:52;;;;;;;9.23;8.33;;;;;;;26.70;43.69;95381.06;6167845;28;109068;-64
2023/07/09 14:08:55;;;;;;;8.83;8.03;;;;;;;26.71;44.35;95384.53;6181293;28;110380;-63
2023/07/09 14:11:58;;;;;;;10.73;9.60;;;;;;;26.76;44.05;95387.03;6189202;28;109477;-64
2023/07/09 14:15:02;;;;;;;9.80;8.97;;;;;;;26.78;44.50;95390.19;6183104;28;109575;-64
2023/07/09 14:18:12;;;;;;;10.60;9.50;;;;;;;26.78;44.39;95393.66;6185395;28;110378;-63